Share

Hof Plauen, Germany

3:47 AM CEST on April 24, 2014 (GMT +0200)
IBAVARIA14 Elev 2050 ft | 50.29 °N, 11.79 °E | Change Station

Current weather conditions updated 13 minutes ago

Mist
Mist
45.3 °F
Feels Like 45 °F
N
0.9
Wind Variable Wind from NE
Gusts 2.0 mph
Sunrise 6:01 AM
Sunset 8:20 PM
Moon Waning Crescent

Today is forecast to be nearly the same temperature as yesterday.

Pressure 30.12 in
Visibility 4.3 miles
Clouds
Windchill 45 °F
Dew Point 43 °F
Humidity 91%
Rainfall 0.00 in
Snow Depth Not available.
UV Not available.
Pollen Not available.
Air Quality Not available.
Flu Activity Not available.
METAR EDQM 240120Z AUTO VRB02KT 7000NDV BR NCD 08/05 Q1020

More Conditions Fewer Conditions

Pressure 30.12 in
Visibility 4.3 miles
Clouds
Windchill 45 °F
Dew Point 43 °F
Humidity 91%
Rainfall 0.00 in
Snow Depth Not available.
UV Not available.
Pollen Not available.
Air Quality Not available.
Flu Activity Not available.
METAR EDQM 240120Z AUTO VRB02KT 7000NDV BR NCD 08/05 Q1020

More Conditions Fewer Conditions

10-Day Weather Forecast

Almanac

Astronomy

Apr. 24, 2014 Rise Set
Actual Time 6:01 AM CEST 8:20 PM CEST
Civil Twilight 5:25 AM CEST 8:56 PM CEST
Nautical Twilight 4:40 AM CEST 9:41 PM CEST
Astronomical Twilight 3:49 AM CEST 10:34 PM CEST
Moon 3:34 AM CEST 2:46 PM CEST
Length of Visible Light 15h 30m
Length of Day
14h 19m
Tomorrow will be 3m 31s longer.
Waning Crescent, 31% of the Moon is Illuminated
Apr 23
Waning Crescent
Apr 29
New
May 6
First Quarter
May 14
Full
May 21
Last Quarter

Yesterday's Extremes

Country Highs Country Lows

Community

  • Nestled In
    Nestled In
  • Stunning Sunrise
    Stunning Sunrise
  • spring flowers
    spring flowers
  • Earth Day Spectrum Ove' Blue
    Earth Day Spectrum Ove' Blue
  • BARN B&W
    BARN B&W

WunderPhotos

Upload Photos

1,704,487 photos uploaded!

WunderBlogs® & News

Nearby

Snow Depth

Not available.

Coastal Water Temperatures

Place Temperature
No Stations Reporting

Earthquake Activity

City Distance Mag. Time & Date
No recent earthquake activity has been reported nearby.
Minimum magnitude displayed is 2.5.

Nearby Weather Stations

Station Location Temp. Windchill Dew Point Humidity Wind Precip. Elev Updated Type
Leupoldsgruen 624m 45.3 °F 45 °F 43 °F 91% NE  at  0.9 mph 0.00 in / hr 2050 ft 3:34 AM CEST Normal
Gefell 46.2 °F 46 °F 41 °F 81% NNE  at  0.0 mph 0.00 in / hr 1886 ft 3:46 AM CEST Normal

Show More Stations Show Fewer Stations

What do you think?

We're not finished. Please let us know what you like, what you don't like, and what you are still missing.